createdAt,value
2022-08-17T00:01:27.452Z,14.88
2022-08-17T00:04:01.607Z,14.10
2022-08-17T00:06:35.940Z,13.73
2022-08-17T00:09:10.190Z,14.23
2022-08-17T00:12:41.414Z,14.57
2022-08-17T00:17:21.858Z,15.00
2022-08-17T00:19:55.833Z,15.20
2022-08-17T00:22:34.789Z,15.25
2022-08-17T00:25:13.750Z,14.85
2022-08-17T00:27:48.152Z,15.43
2022-08-17T00:30:22.346Z,15.10
2022-08-17T00:33:11.986Z,15.20
2022-08-17T00:35:52.192Z,13.73
2022-08-17T00:38:27.828Z,14.82
2022-08-17T00:41:05.735Z,15.80
2022-08-17T00:43:41.926Z,15.10
2022-08-17T00:46:19.543Z,15.80
2022-08-17T00:48:54.966Z,14.98
2022-08-17T00:51:34.074Z,15.55
2022-08-17T00:54:12.469Z,15.35
2022-08-17T00:56:51.322Z,14.20
2022-08-17T00:59:28.326Z,15.05
2022-08-17T01:02:02.844Z,15.05
2022-08-17T01:04:39.031Z,14.98
2022-08-17T01:07:13.928Z,15.05
2022-08-17T01:09:48.792Z,15.48
2022-08-17T01:12:23.270Z,14.82
2022-08-17T01:14:57.286Z,13.50
2022-08-17T01:17:31.436Z,15.13
2022-08-17T01:20:08.167Z,14.85
2022-08-17T01:22:43.636Z,14.93
2022-08-17T01:25:18.616Z,15.65
2022-08-17T01:27:52.677Z,14.77
2022-08-17T01:30:58.066Z,14.57
2022-08-17T01:33:20.938Z,15.85
2022-08-17T01:35:55.074Z,15.43
2022-08-17T01:38:32.075Z,15.02
2022-08-17T01:41:11.430Z,15.65
2022-08-17T01:43:49.259Z,15.35
2022-08-17T01:46:26.157Z,14.93
2022-08-17T01:49:00.997Z,15.40
2022-08-17T01:51:35.849Z,14.30
2022-08-17T01:54:14.846Z,15.82
2022-08-17T01:56:52.264Z,14.70
2022-08-17T01:59:26.242Z,14.75
2022-08-17T02:02:00.694Z,13.73
2022-08-17T02:04:35.347Z,14.93
2022-08-17T02:07:09.442Z,15.13
2022-08-17T02:09:45.889Z,14.93
2022-08-17T02:12:39.090Z,14.20
2022-08-17T02:15:21.278Z,14.15
2022-08-17T02:17:55.566Z,14.35
2022-08-17T02:20:41.895Z,14.82
2022-08-17T02:23:17.197Z,14.10
2022-08-17T02:25:52.650Z,14.27
2022-08-17T02:28:28.522Z,14.43
2022-08-17T02:31:06.677Z,14.52
2022-08-17T02:33:43.660Z,14.35
2022-08-17T02:36:17.858Z,14.35
2022-08-17T02:38:51.851Z,14.13
2022-08-17T02:41:27.781Z,12.68
2022-08-17T02:44:02.011Z,12.88
2022-08-17T02:46:36.324Z,13.80
2022-08-17T02:49:10.699Z,13.98
2022-08-17T02:51:44.732Z,14.77
2022-08-17T02:54:40.103Z,14.30
2022-08-17T02:57:14.347Z,13.80
2022-08-17T02:59:49.162Z,13.48
2022-08-17T03:02:23.302Z,13.80
2022-08-17T03:04:57.330Z,14.20
2022-08-17T03:07:31.931Z,14.05
2022-08-17T03:10:07.387Z,14.23
2022-08-17T03:12:43.879Z,13.63
2022-08-17T03:15:21.068Z,14.48
2022-08-17T03:17:55.342Z,14.95
2022-08-17T03:20:33.631Z,13.57
2022-08-17T03:23:07.882Z,14.30
2022-08-17T03:25:46.595Z,13.05
2022-08-17T03:28:22.567Z,13.35
2022-08-17T03:30:56.569Z,13.70
2022-08-17T03:33:30.712Z,13.18
2022-08-17T03:36:05.127Z,12.80
2022-08-17T03:38:39.581Z,13.60
2022-08-17T03:41:14.145Z,12.75
2022-08-17T03:43:49.477Z,13.35
2022-08-17T03:46:40.417Z,13.90
2022-08-17T03:49:31.622Z,12.68
2022-08-17T03:52:23.372Z,13.82
2022-08-17T03:55:14.854Z,13.38
2022-08-17T03:57:49.185Z,13.13
2022-08-17T04:00:24.629Z,13.30
2022-08-17T04:02:59.315Z,13.82
2022-08-17T04:05:34.555Z,13.30
2022-08-17T04:08:09.173Z,13.93
2022-08-17T04:10:45.233Z,14.60
2022-08-17T04:13:24.257Z,13.77
2022-08-17T04:16:00.993Z,14.15
2022-08-17T04:18:34.907Z,13.63
2022-08-17T04:21:10.598Z,13.20
2022-08-17T04:23:44.605Z,13.98
2022-08-17T04:26:52.288Z,14.20
2022-08-17T04:29:13.216Z,14.05
2022-08-17T04:31:48.656Z,13.20
2022-08-17T04:34:23.136Z,13.07
2022-08-17T04:36:57.046Z,13.05
2022-08-17T04:39:33.861Z,14.25
2022-08-17T04:42:17.221Z,13.38
2022-08-17T04:44:51.203Z,13.90
2022-08-17T04:47:29.582Z,14.40
2022-08-17T04:50:04.251Z,13.10
2022-08-17T04:52:47.108Z,14.23
2022-08-17T04:55:21.166Z,12.93
2022-08-17T04:57:55.438Z,14.63
2022-08-17T05:00:29.463Z,14.25
2022-08-17T05:03:05.934Z,13.63
2022-08-17T05:05:43.278Z,13.10
2022-08-17T05:08:19.593Z,14.45
2022-08-17T05:10:53.911Z,13.50
2022-08-17T05:13:29.968Z,14.75
2022-08-17T05:16:05.425Z,13.73
2022-08-17T05:18:40.921Z,13.77
2022-08-17T05:21:15.523Z,13.57
2022-08-17T05:23:53.938Z,14.77
2022-08-17T05:26:29.449Z,13.85
2022-08-17T05:29:03.491Z,14.13
2022-08-17T05:31:37.545Z,13.52
2022-08-17T05:34:12.933Z,13.98
2022-08-17T05:36:46.847Z,14.10
2022-08-17T05:39:20.762Z,14.13
2022-08-17T05:41:54.694Z,15.07
2022-08-17T05:44:28.639Z,13.60
2022-08-17T05:47:03.500Z,14.13
2022-08-17T05:49:39.864Z,16.02
2022-08-17T05:52:27.767Z,13.98
2022-08-17T05:55:13.743Z,13.02
2022-08-17T05:58:01.250Z,15.27
2022-08-17T06:00:43.855Z,14.43
2022-08-17T06:03:29.839Z,14.73
2022-08-17T06:06:22.330Z,15.07
2022-08-17T06:09:13.144Z,14.82
2022-08-17T06:11:53.565Z,14.90
2022-08-17T06:14:41.078Z,14.32
2022-08-17T06:17:19.826Z,14.00
2022-08-17T06:19:57.317Z,14.57
2022-08-17T06:22:36.176Z,13.35
2022-08-17T06:25:16.318Z,15.65
2022-08-17T06:27:53.552Z,14.82
2022-08-17T06:30:59.271Z,15.68
2022-08-17T06:33:32.330Z,13.63
2022-08-17T06:36:17.827Z,12.80
2022-08-17T06:39:01.130Z,13.20
2022-08-17T06:41:43.189Z,16.05
2022-08-17T06:44:43.237Z,18.20
2022-08-17T06:47:28.144Z,19.08
2022-08-17T06:50:14.847Z,20.27
2022-08-17T06:52:55.827Z,20.20
2022-08-17T06:55:38.293Z,19.92
2022-08-17T06:58:16.697Z,18.52
2022-08-17T07:00:58.501Z,20.00
2022-08-17T07:03:38.113Z,18.55
2022-08-17T07:06:15.976Z,19.42
2022-08-17T07:08:56.958Z,19.13
2022-08-17T07:11:40.813Z,19.38
2022-08-17T07:14:29.513Z,19.73
2022-08-17T07:17:07.986Z,18.83
2022-08-17T07:19:45.771Z,18.75
2022-08-17T07:22:28.051Z,18.30
2022-08-17T07:25:06.705Z,19.10
2022-08-17T07:27:46.034Z,19.13
2022-08-17T07:30:23.462Z,16.80
2022-08-17T07:33:01.537Z,18.80
2022-08-17T07:35:41.217Z,18.55
2022-08-17T07:38:25.415Z,17.55
2022-08-17T07:41:06.391Z,19.27
2022-08-17T07:43:50.117Z,17.42
2022-08-17T07:46:43.411Z,17.92
2022-08-17T07:49:34.074Z,17.13
2022-08-17T07:52:13.408Z,16.40
2022-08-17T07:55:27.992Z,16.85
2022-08-17T07:58:02.190Z,15.75
2022-08-17T08:00:37.646Z,14.35
2022-08-17T08:03:23.672Z,15.80
2022-08-17T08:06:03.150Z,15.02
2022-08-17T08:08:42.435Z,15.55
2022-08-17T08:11:29.438Z,14.55
2022-08-17T08:14:21.968Z,14.75
2022-08-17T08:17:07.436Z,14.20
2022-08-17T08:19:43.526Z,14.48
2022-08-17T08:22:23.999Z,13.90
2022-08-17T08:25:20.234Z,14.60
2022-08-17T08:28:08.047Z,14.60
2022-08-17T08:30:48.712Z,14.15
2022-08-17T08:33:39.610Z,14.65
2022-08-17T08:37:15.726Z,14.25
2022-08-17T08:39:25.306Z,13.50
2022-08-17T08:42:08.739Z,14.38
2022-08-17T08:45:03.579Z,13.77
2022-08-17T08:48:05.158Z,13.60
2022-08-17T08:50:49.560Z,13.35
2022-08-17T08:53:36.747Z,13.75
2022-08-17T08:56:13.964Z,13.98
2022-08-17T08:58:59.355Z,13.10
2022-08-17T09:01:40.700Z,12.68
2022-08-17T09:04:30.263Z,13.25
2022-08-17T09:07:14.252Z,13.50
2022-08-17T09:09:59.287Z,12.77
2022-08-17T09:12:43.967Z,13.85
2022-08-17T09:15:22.389Z,13.13
2022-08-17T09:19:00.122Z,12.48
2022-08-17T09:21:00.911Z,13.75
2022-08-17T09:23:42.287Z,12.40
2022-08-17T09:26:23.022Z,12.85
2022-08-17T09:29:01.668Z,13.55
2022-08-17T09:31:48.770Z,12.40
2022-08-17T09:34:33.057Z,13.48
2022-08-17T09:39:56.217Z,13.63
2022-08-17T09:42:39.038Z,12.82
2022-08-17T09:45:28.232Z,12.60
2022-08-17T09:48:07.510Z,12.85
2022-08-17T09:51:03.585Z,13.90
2022-08-17T09:53:40.934Z,12.77
2022-08-17T09:56:29.381Z,11.32
2022-08-17T09:59:23.423Z,12.23
2022-08-17T10:02:07.444Z,12.50
2022-08-17T10:05:02.795Z,13.05
2022-08-17T10:07:43.332Z,11.85
2022-08-17T10:10:25.096Z,12.57
2022-08-17T10:13:06.773Z,12.32
2022-08-17T10:15:54.671Z,11.95
2022-08-17T10:18:40.027Z,12.05
2022-08-17T10:21:33.951Z,11.73
2022-08-17T10:24:31.960Z,11.93
2022-08-17T10:27:14.200Z,10.98
2022-08-17T10:29:55.298Z,11.15
2022-08-17T10:32:34.306Z,11.05
2022-08-17T10:35:27.091Z,10.88
2022-08-17T10:38:29.836Z,10.80
2022-08-17T10:41:21.095Z,10.82
2022-08-17T10:44:38.353Z,11.00
2022-08-17T10:47:09.364Z,10.75
2022-08-17T10:49:48.030Z,11.77
2022-08-17T10:52:48.843Z,11.13
2022-08-17T10:55:25.910Z,11.23
2022-08-17T10:58:22.083Z,10.85
2022-08-17T11:01:00.328Z,10.15
2022-08-17T11:03:35.821Z,11.00
2022-08-17T11:06:21.679Z,10.15
2022-08-17T11:09:27.725Z,11.48
2022-08-17T11:12:16.453Z,10.10
2022-08-17T11:15:02.332Z,10.52
2022-08-17T11:17:57.687Z,9.90
2022-08-17T11:20:59.793Z,9.65
2022-08-17T11:24:07.292Z,10.23
2022-08-17T11:26:46.899Z,10.55
2022-08-17T11:29:24.991Z,9.90
2022-08-17T11:32:03.812Z,10.05
2022-08-17T11:34:38.833Z,10.18
2022-08-17T11:37:35.466Z,10.23
2022-08-17T11:40:51.575Z,9.68
2022-08-17T11:43:55.706Z,9.93
2022-08-17T11:47:00.113Z,10.05
2022-08-17T11:50:11.449Z,9.20
2022-08-17T11:52:49.713Z,10.43
2022-08-17T11:56:00.767Z,10.15
2022-08-17T11:58:38.578Z,10.35
2022-08-17T12:01:16.167Z,9.82
2022-08-17T12:03:57.104Z,10.02
2022-08-17T12:06:46.119Z,9.55
2022-08-17T12:09:25.044Z,9.88
2022-08-17T12:12:12.909Z,9.52
2022-08-17T12:17:54.563Z,8.85
2022-08-17T12:20:31.292Z,9.55
2022-08-17T12:23:13.871Z,9.93
2022-08-17T12:25:52.911Z,8.82
2022-08-17T12:28:30.029Z,9.63
2022-08-17T12:31:06.001Z,9.90
2022-08-17T12:33:46.199Z,8.80
2022-08-17T12:36:24.669Z,9.18
2022-08-17T12:39:13.944Z,9.68
2022-08-17T12:41:57.380Z,9.65
2022-08-17T12:44:43.010Z,8.55
2022-08-17T12:47:25.211Z,10.00
2022-08-17T12:50:28.249Z,9.50
2022-08-17T12:53:03.817Z,10.30
2022-08-17T12:55:39.073Z,9.77
2022-08-17T12:58:22.351Z,9.70
2022-08-17T13:01:01.505Z,10.70
2022-08-17T13:03:41.066Z,10.48
2022-08-17T13:06:32.422Z,9.70
2022-08-17T13:09:14.711Z,9.52
2022-08-17T13:11:50.628Z,8.88
2022-08-17T13:14:26.509Z,9.38
2022-08-17T13:17:07.336Z,9.90
2022-08-17T13:19:51.537Z,9.18
2022-08-17T13:22:27.235Z,10.10
2022-08-17T13:25:05.635Z,9.50
2022-08-17T13:27:44.486Z,8.60
2022-08-17T13:30:24.277Z,9.57
2022-08-17T13:33:05.022Z,8.50
2022-08-17T13:35:50.250Z,9.32
2022-08-17T13:38:41.185Z,9.35
2022-08-17T13:41:34.566Z,8.93
2022-08-17T13:44:33.483Z,9.35
2022-08-17T13:47:19.821Z,8.88
2022-08-17T13:49:55.419Z,9.30
2022-08-17T13:52:37.983Z,9.07
2022-08-17T13:55:20.121Z,9.27
2022-08-17T13:58:06.571Z,9.52
2022-08-17T14:00:41.441Z,9.25
2022-08-17T14:03:17.062Z,8.88
2022-08-17T14:05:52.330Z,8.65
2022-08-17T14:08:26.627Z,8.75
2022-08-17T14:11:00.809Z,8.80
2022-08-17T14:13:34.904Z,9.35
2022-08-17T14:16:09.165Z,8.55
2022-08-17T14:18:56.087Z,8.38
2022-08-17T14:21:31.630Z,9.15
2022-08-17T14:24:06.218Z,8.77
2022-08-17T14:26:40.297Z,9.15
2022-08-17T14:29:15.301Z,8.82
2022-08-17T14:31:53.327Z,8.65
2022-08-17T14:34:30.154Z,9.27
2022-08-17T14:37:04.283Z,8.60
2022-08-17T14:39:38.298Z,8.52
2022-08-17T14:42:13.034Z,8.80
2022-08-17T14:44:47.043Z,8.25
2022-08-17T14:47:21.133Z,8.38
2022-08-17T14:49:57.000Z,8.68
2022-08-17T14:52:31.214Z,8.55
2022-08-17T14:55:06.685Z,8.55
2022-08-17T14:57:42.304Z,9.13
2022-08-17T15:00:17.687Z,9.02
2022-08-17T15:02:54.949Z,9.88
2022-08-17T15:05:33.789Z,9.77
2022-08-17T15:08:09.224Z,9.77
2022-08-17T15:10:43.214Z,8.85
2022-08-17T15:13:20.661Z,9.27
2022-08-17T15:15:55.222Z,9.52
2022-08-17T15:18:29.668Z,8.52
2022-08-17T15:21:07.550Z,9.70
2022-08-17T15:23:41.857Z,8.80
2022-08-17T15:26:18.522Z,9.88
2022-08-17T15:28:56.780Z,8.55
2022-08-17T15:31:32.399Z,8.82
2022-08-17T15:34:08.046Z,8.90
2022-08-17T15:36:49.377Z,8.90
2022-08-17T15:39:23.641Z,9.07
2022-08-17T15:41:58.745Z,8.80
2022-08-17T15:44:35.159Z,8.88
2022-08-17T15:47:10.155Z,8.63
2022-08-17T15:49:47.523Z,9.32
2022-08-17T15:52:25.799Z,8.85
2022-08-17T15:55:01.613Z,8.18
2022-08-17T15:57:36.290Z,8.48
2022-08-17T16:00:11.790Z,8.45
2022-08-17T16:03:45.049Z,9.35
2022-08-17T16:05:44.026Z,8.95
2022-08-17T16:08:21.673Z,7.88
2022-08-17T16:10:55.965Z,8.63
2022-08-17T16:13:29.998Z,8.20
2022-08-17T16:16:04.734Z,8.35
2022-08-17T16:18:39.853Z,8.27
2022-08-17T16:21:42.908Z,8.00
2022-08-17T16:24:18.651Z,8.05
2022-08-17T16:26:52.705Z,8.98
2022-08-17T16:29:26.805Z,8.07
2022-08-17T16:32:10.003Z,7.82
2022-08-17T16:34:44.444Z,7.80
2022-08-17T16:37:18.690Z,8.43
2022-08-17T16:39:54.688Z,9.52
2022-08-17T16:42:31.041Z,8.93
2022-08-17T16:45:12.041Z,8.25
2022-08-17T16:47:46.447Z,7.97
2022-08-17T16:50:23.635Z,8.40
2022-08-17T16:53:06.605Z,8.23
2022-08-17T16:55:42.711Z,7.80
2022-08-17T16:58:17.275Z,7.75
2022-08-17T17:00:51.285Z,8.27
2022-08-17T17:03:27.416Z,7.80
2022-08-17T17:06:08.522Z,8.07
2022-08-17T17:08:48.567Z,7.28
2022-08-17T17:11:34.218Z,6.95
2022-08-17T17:14:12.179Z,7.63
2022-08-17T17:16:53.722Z,7.65
2022-08-17T17:19:35.158Z,7.50
2022-08-17T17:22:15.269Z,8.18
2022-08-17T17:24:55.971Z,7.68
2022-08-17T17:27:38.543Z,8.55
2022-08-17T17:30:16.761Z,8.20
2022-08-17T17:32:53.787Z,8.18
2022-08-17T17:35:31.942Z,8.20
2022-08-17T17:38:15.647Z,8.40
2022-08-17T17:40:54.740Z,7.90
2022-08-17T17:43:39.808Z,9.23
2022-08-17T17:46:27.675Z,8.18
2022-08-17T17:49:03.078Z,8.82
2022-08-17T17:52:05.269Z,7.60
2022-08-17T17:54:51.461Z,7.72
2022-08-17T17:57:38.017Z,9.32
2022-08-17T18:00:16.308Z,8.82
2022-08-17T18:03:18.902Z,8.45
2022-08-17T18:06:20.003Z,8.00
2022-08-17T18:09:06.242Z,8.18
2022-08-17T18:12:03.612Z,8.63
2022-08-17T18:14:58.322Z,8.07
2022-08-17T18:17:34.229Z,7.78
2022-08-17T18:20:08.731Z,8.48
2022-08-17T18:22:42.668Z,8.75
2022-08-17T18:25:43.714Z,8.73
2022-08-17T18:28:25.897Z,8.38
2022-08-17T18:31:13.028Z,7.47
2022-08-17T18:33:50.242Z,7.97
2022-08-17T18:36:29.383Z,8.43
2022-08-17T18:39:13.348Z,7.88
2022-08-17T18:41:49.172Z,8.35
2022-08-17T18:44:26.647Z,7.57
2022-08-17T18:47:13.698Z,8.48
2022-08-17T18:49:53.803Z,8.20
2022-08-17T18:52:30.860Z,8.52
2022-08-17T18:55:09.981Z,7.80
2022-08-17T18:57:46.601Z,7.40
2022-08-17T19:00:35.626Z,7.35
2022-08-17T19:03:24.543Z,8.23
2022-08-17T19:06:19.263Z,7.55
2022-08-17T19:08:53.280Z,7.18
2022-08-17T19:11:30.820Z,7.22
2022-08-17T19:14:07.961Z,7.15
2022-08-17T19:16:50.412Z,6.63
2022-08-17T19:19:29.714Z,8.02
2022-08-17T19:22:14.595Z,7.68
2022-08-17T19:25:12.244Z,6.93
2022-08-17T19:27:57.800Z,7.40
2022-08-17T19:30:32.946Z,8.73
2022-08-17T19:33:07.056Z,8.82
2022-08-17T19:35:47.909Z,8.68
2022-08-17T19:38:33.938Z,9.15
2022-08-17T19:41:17.569Z,8.27
2022-08-17T19:44:14.057Z,7.47
2022-08-17T19:46:58.403Z,8.50
2022-08-17T19:49:46.844Z,7.68
2022-08-17T19:52:44.523Z,9.05
2022-08-17T19:55:30.947Z,8.35
2022-08-17T19:58:12.898Z,8.23
2022-08-17T20:00:54.130Z,8.32
2022-08-17T20:03:35.463Z,9.75
2022-08-17T20:06:14.089Z,11.00
2022-08-17T20:09:04.543Z,9.15
2022-08-17T20:11:46.426Z,9.95
2022-08-17T20:14:24.962Z,10.73
2022-08-17T20:17:02.630Z,10.60
2022-08-17T20:19:45.267Z,11.65
2022-08-17T20:22:23.918Z,11.35
2022-08-17T20:25:07.660Z,11.57
2022-08-17T20:27:54.501Z,11.57
2022-08-17T20:30:42.043Z,12.65
2022-08-17T20:33:26.718Z,12.18
2022-08-17T20:36:19.648Z,11.45
2022-08-17T20:38:57.277Z,11.73
2022-08-17T20:41:32.480Z,12.25
2022-08-17T20:44:08.389Z,10.85
2022-08-17T20:46:56.819Z,11.65
2022-08-17T20:49:47.347Z,11.80
2022-08-17T20:52:51.783Z,12.18
2022-08-17T20:55:53.199Z,12.77
2022-08-17T20:58:47.609Z,13.02
2022-08-17T21:01:39.093Z,12.43
2022-08-17T21:04:47.576Z,12.60
2022-08-17T21:07:29.324Z,12.13
2022-08-17T21:10:15.521Z,13.18
2022-08-17T21:12:56.936Z,13.15
2022-08-17T21:15:38.039Z,13.32
2022-08-17T21:18:19.482Z,14.32
2022-08-17T21:21:15.407Z,14.40
2022-08-17T21:24:11.903Z,11.93
2022-08-17T21:26:56.513Z,13.38
2022-08-17T21:29:34.046Z,13.27
2022-08-17T21:32:21.810Z,14.52
2022-08-17T21:35:26.965Z,13.05
2022-08-17T21:38:05.306Z,13.23
2022-08-17T21:40:39.558Z,14.15
2022-08-17T21:43:32.674Z,13.07
2022-08-17T21:46:12.170Z,12.95
2022-08-17T21:48:49.462Z,12.77
2022-08-17T21:51:30.888Z,13.55
2022-08-17T21:54:15.398Z,14.05
2022-08-17T21:56:49.920Z,13.13
2022-08-17T21:59:28.615Z,12.65
2022-08-17T22:02:04.206Z,13.23
2022-08-17T22:04:40.253Z,14.32
2022-08-17T22:07:16.131Z,14.52
2022-08-17T22:09:51.391Z,14.05
2022-08-17T22:12:25.632Z,14.73
2022-08-17T22:15:02.386Z,13.90
2022-08-17T22:17:40.451Z,13.55
2022-08-17T22:20:17.417Z,15.43
2022-08-17T22:23:30.321Z,13.43
2022-08-17T22:26:06.187Z,14.07
2022-08-17T22:28:47.187Z,13.55
2022-08-17T22:31:23.676Z,13.95
2022-08-17T22:34:13.980Z,14.48
2022-08-17T22:36:47.980Z,13.75
2022-08-17T22:39:42.163Z,13.93
2022-08-17T22:42:16.776Z,14.45
2022-08-17T22:44:54.781Z,13.98
2022-08-17T22:47:39.028Z,14.55
2022-08-17T22:50:22.567Z,13.52
2022-08-17T22:53:19.381Z,13.25
2022-08-17T22:56:14.505Z,14.02
2022-08-17T22:59:16.052Z,13.77
2022-08-17T23:02:16.114Z,12.98
2022-08-17T23:04:53.131Z,13.30
2022-08-17T23:07:27.118Z,14.27
2022-08-17T23:10:02.366Z,14.05
2022-08-17T23:12:39.996Z,13.05
2022-08-17T23:15:17.805Z,13.30
2022-08-17T23:17:51.848Z,13.68
2022-08-17T23:20:25.854Z,13.52
2022-08-17T23:23:00.913Z,13.10
2022-08-17T23:25:36.569Z,14.13
2022-08-17T23:28:12.569Z,13.68
2022-08-17T23:30:48.628Z,12.98
2022-08-17T23:33:28.023Z,13.88
2022-08-17T23:36:01.992Z,13.73
2022-08-17T23:38:35.989Z,14.10
2022-08-17T23:41:13.152Z,13.57
2022-08-17T23:43:55.329Z,13.75
2022-08-17T23:46:29.275Z,12.88
2022-08-17T23:49:03.471Z,14.13
2022-08-17T23:51:42.745Z,13.63
2022-08-17T23:54:23.927Z,13.45
2022-08-17T23:56:58.018Z,13.40
2022-08-17T23:59:34.276Z,14.70
